Acton, Texas
Current Conditions -  °F | °C
As of 8:15 AM on Thursday 29 Jan 2015 (Local Time) from KGDJ Reporting Station
Clear Clear  
Wind Chill: 54°   Ceiling: Unl
Heat Index: 54°   Visibility: 10mi
Dew Point: 40°   Wind: 8mph
Humidity: 59%   Direction: 290°WNW
Pressure: 30.24"   Gusts: NA
Location:  32.4693°N, 97.7085°W
Report Text: KGDJ 291415Z AUTO 29007KT 10SM CLR 12/05 A3024 RMK AO2 T01240045
Loading
Personal Weather Stations






























Interactive Weather Map New forecast layout! Learn more

10-Day Weather Forecast

Advertisements
Track Severe Weather on mobile